sensor_id;sensor_type;location;lat;lon;timestamp;pressure;altitude;pressure_sealevel;temperature;humidity
54900;BME280;40801;41.924;25.562;2022-07-05T00:02:13;99594.59;;;19.63;52.62
54900;BME280;40801;41.924;25.562;2022-07-05T00:04:38;99599.34;;;19.66;52.82
54900;BME280;40801;41.924;25.562;2022-07-05T00:07:04;99605.91;;;19.61;52.95
54900;BME280;40801;41.924;25.562;2022-07-05T00:09:48;99604.75;;;19.62;52.96
54900;BME280;40801;41.924;25.562;2022-07-05T00:12:14;99600.66;;;19.72;52.59
54900;BME280;40801;41.924;25.562;2022-07-05T00:14:41;99588.94;;;19.71;52.70
54900;BME280;40801;41.924;25.562;2022-07-05T00:17:07;99594.47;;;19.75;52.74
54900;BME280;40801;41.924;25.562;2022-07-05T00:19:32;99594.03;;;19.73;52.89
54900;BME280;40801;41.924;25.562;2022-07-05T00:21:57;99595.13;;;19.68;53.03
54900;BME280;40801;41.924;25.562;2022-07-05T00:24:24;99589.13;;;19.63;53.32
54900;BME280;40801;41.924;25.562;2022-07-05T00:26:49;99589.47;;;19.61;53.40
54900;BME280;40801;41.924;25.562;2022-07-05T00:29:15;99586.31;;;19.59;53.31
54900;BME280;40801;41.924;25.562;2022-07-05T00:31:40;99586.31;;;19.59;53.26
54900;BME280;40801;41.924;25.562;2022-07-05T00:34:06;99581.28;;;19.61;53.33
54900;BME280;40801;41.924;25.562;2022-07-05T00:36:31;99575.00;;;19.61;53.47
54900;BME280;40801;41.924;25.562;2022-07-05T00:38:56;99573.00;;;19.58;53.64
54900;BME280;40801;41.924;25.562;2022-07-05T00:41:22;99572.56;;;19.56;53.53
54900;BME280;40801;41.924;25.562;2022-07-05T00:43:56;99569.31;;;19.50;54.51
54900;BME280;40801;41.924;25.562;2022-07-05T00:46:22;99562.84;;;19.39;54.04
54900;BME280;40801;41.924;25.562;2022-07-05T00:48:48;99553.13;;;19.41;53.86
54900;BME280;40801;41.924;25.562;2022-07-05T00:51:13;99556.91;;;19.37;53.99
54900;BME280;40801;41.924;25.562;2022-07-05T00:53:39;99557.13;;;19.28;54.39
54900;BME280;40801;41.924;25.562;2022-07-05T00:56:05;99565.81;;;19.14;55.01
54900;BME280;40801;41.924;25.562;2022-07-05T00:58:32;99562.22;;;19.10;55.07
54900;BME280;40801;41.924;25.562;2022-07-05T01:00:58;99562.22;;;19.10;54.95
54900;BME280;40801;41.924;25.562;2022-07-05T01:03:24;99562.59;;;19.09;55.00
54900;BME280;40801;41.924;25.562;2022-07-05T01:05:52;99571.56;;;19.09;55.17
54900;BME280;40801;41.924;25.562;2022-07-05T01:08:19;99568.47;;;19.11;55.22
54900;BME280;40801;41.924;25.562;2022-07-05T01:10:45;99561.44;;;19.10;55.42
54900;BME280;40801;41.924;25.562;2022-07-05T01:13:10;99559.13;;;19.12;55.32
54900;BME280;40801;41.924;25.562;2022-07-05T01:15:36;99554.59;;;19.19;54.85
54900;BME280;40801;41.924;25.562;2022-07-05T01:18:04;99564.53;;;19.28;54.76
54900;BME280;40801;41.924;25.562;2022-07-05T01:20:30;99561.44;;;19.29;54.66
54900;BME280;40801;41.924;25.562;2022-07-05T01:22:57;99546.97;;;19.29;54.70
54900;BME280;40801;41.924;25.562;2022-07-05T01:25:27;99549.41;;;19.34;54.96
54900;BME280;40801;41.924;25.562;2022-07-05T01:27:53;99550.72;;;19.21;55.33
54900;BME280;40801;41.924;25.562;2022-07-05T01:30:19;99545.97;;;19.17;55.43
54900;BME280;40801;41.924;25.562;2022-07-05T01:32:45;99537.69;;;19.14;55.18
54900;BME280;40801;41.924;25.562;2022-07-05T01:35:11;99552.09;;;19.11;55.47
54900;BME280;40801;41.924;25.562;2022-07-05T01:37:37;99553.91;;;19.07;55.40
54900;BME280;40801;41.924;25.562;2022-07-05T01:40:04;99561.69;;;19.05;55.47
54900;BME280;40801;41.924;25.562;2022-07-05T01:42:30;99562.31;;;18.98;55.67
54900;BME280;40801;41.924;25.562;2022-07-05T01:44:56;99568.34;;;18.88;56.08
54900;BME280;40801;41.924;25.562;2022-07-05T01:47:22;99556.91;;;18.82;56.16
54900;BME280;40801;41.924;25.562;2022-07-05T01:49:53;99559.09;;;18.77;56.53
54900;BME280;40801;41.924;25.562;2022-07-05T01:52:22;99563.09;;;18.79;56.31
54900;BME280;40801;41.924;25.562;2022-07-05T01:54:49;99569.50;;;18.71;56.69
54900;BME280;40801;41.924;25.562;2022-07-05T01:57:15;99572.31;;;18.75;56.36
54900;BME280;40801;41.924;25.562;2022-07-05T01:59:40;99571.72;;;18.66;56.71
54900;BME280;40801;41.924;25.562;2022-07-05T02:02:08;99577.97;;;18.66;57.16
54900;BME280;40801;41.924;25.562;2022-07-05T02:04:34;99581.06;;;18.65;56.90
54900;BME280;40801;41.924;25.562;2022-07-05T02:07:04;99567.75;;;18.63;57.30
54900;BME280;40801;41.924;25.562;2022-07-05T02:09:29;99559.28;;;18.68;56.74
54900;BME280;40801;41.924;25.562;2022-07-05T02:11:55;99566.34;;;18.69;56.73
54900;BME280;40801;41.924;25.562;2022-07-05T02:14:20;99561.03;;;18.76;56.43
54900;BME280;40801;41.924;25.562;2022-07-05T02:16:46;99559.09;;;18.77;56.34
54900;BME280;40801;41.924;25.562;2022-07-05T02:19:11;99560.94;;;18.73;56.70
54900;BME280;40801;41.924;25.562;2022-07-05T02:21:37;99559.22;;;18.65;57.03
54900;BME280;40801;41.924;25.562;2022-07-05T02:24:02;99549.22;;;18.56;57.29
54900;BME280;40801;41.924;25.562;2022-07-05T02:26:28;99567.91;;;18.54;57.43
54900;BME280;40801;41.924;25.562;2022-07-05T02:28:53;99571.88;;;18.57;57.13
54900;BME280;40801;41.924;25.562;2022-07-05T02:31:19;99571.00;;;18.53;57.19
54900;BME280;40801;41.924;25.562;2022-07-05T02:33:45;99565.34;;;18.62;56.93
54900;BME280;40801;41.924;25.562;2022-07-05T02:36:12;99562.53;;;18.58;57.12
54900;BME280;40801;41.924;25.562;2022-07-05T02:38:39;99574.97;;;18.55;57.47
54900;BME280;40801;41.924;25.562;2022-07-05T02:41:08;99573.09;;;18.44;58.37
54900;BME280;40801;41.924;25.562;2022-07-05T02:43:34;99565.16;;;18.39;58.02
54900;BME280;40801;41.924;25.562;2022-07-05T02:46:01;99566.13;;;18.46;57.58
54900;BME280;40801;41.924;25.562;2022-07-05T02:48:26;99575.81;;;18.44;57.73
54900;BME280;40801;41.924;25.562;2022-07-05T02:50:52;99573.38;;;18.39;57.83
54900;BME280;40801;41.924;25.562;2022-07-05T02:53:17;99579.19;;;18.37;57.92
54900;BME280;40801;41.924;25.562;2022-07-05T02:55:43;99579.53;;;18.36;58.01
54900;BME280;40801;41.924;25.562;2022-07-05T02:58:08;99587.38;;;18.37;57.88
54900;BME280;40801;41.924;25.562;2022-07-05T03:00:34;99582.00;;;18.41;57.96
54900;BME280;40801;41.924;25.562;2022-07-05T03:02:59;99591.06;;;18.45;57.90
54900;BME280;40801;41.924;25.562;2022-07-05T03:05:25;99586.84;;;18.47;57.73
54900;BME280;40801;41.924;25.562;2022-07-05T03:07:50;99593.53;;;18.50;57.77
54900;BME280;40801;41.924;25.562;2022-07-05T03:10:16;99592.84;;;18.53;57.65
54900;BME280;40801;41.924;25.562;2022-07-05T03:12:41;99595.66;;;18.56;57.46
54900;BME280;40801;41.924;25.562;2022-07-05T03:15:07;99588.69;;;18.59;57.36
54900;BME280;40801;41.924;25.562;2022-07-05T03:17:32;99593.13;;;18.64;57.37
54900;BME280;40801;41.924;25.562;2022-07-05T03:19:58;99599.63;;;18.59;57.58
54900;BME280;40801;41.924;25.562;2022-07-05T03:22:23;99606.16;;;18.54;57.64
54900;BME280;40801;41.924;25.562;2022-07-05T03:24:49;99595.22;;;18.54;57.80
54900;BME280;40801;41.924;25.562;2022-07-05T03:27:14;99596.19;;;18.46;58.12
54900;BME280;40801;41.924;25.562;2022-07-05T03:29:40;99587.03;;;18.54;57.80
54900;BME280;40801;41.924;25.562;2022-07-05T03:32:05;99588.78;;;18.47;58.08
54900;BME280;40801;41.924;25.562;2022-07-05T03:34:31;99586.59;;;18.52;58.00
54900;BME280;40801;41.924;25.562;2022-07-05T03:36:56;99579.78;;;18.46;58.04
54900;BME280;40801;41.924;25.562;2022-07-05T03:39:22;99582.72;;;18.53;57.83
54900;BME280;40801;41.924;25.562;2022-07-05T03:41:48;99588.97;;;18.54;57.97
54900;BME280;40801;41.924;25.562;2022-07-05T03:44:13;99570.66;;;18.54;57.92
54900;BME280;40801;41.924;25.562;2022-07-05T03:46:38;99579.19;;;18.53;58.41
54900;BME280;40801;41.924;25.562;2022-07-05T03:49:04;99577.00;;;18.58;58.47
54900;BME280;40801;41.924;25.562;2022-07-05T03:51:29;99570.50;;;18.63;58.41
54900;BME280;40801;41.924;25.562;2022-07-05T03:53:55;99569.16;;;18.73;58.32
54900;BME280;40801;41.924;25.562;2022-07-05T03:56:20;99572.22;;;18.87;58.13
54900;BME280;40801;41.924;25.562;2022-07-05T03:58:49;99561.19;;;18.99;57.80
54900;BME280;40801;41.924;25.562;2022-07-05T04:01:15;99560.97;;;19.08;57.74
54900;BME280;40801;41.924;25.562;2022-07-05T04:03:40;99554.03;;;19.10;57.77
54900;BME280;40801;41.924;25.562;2022-07-05T04:06:09;99566.31;;;19.20;57.79
54900;BME280;40801;41.924;25.562;2022-07-05T04:08:34;99568.34;;;19.23;57.63
54900;BME280;40801;41.924;25.562;2022-07-05T04:11:00;99560.66;;;19.29;57.33
54900;BME280;40801;41.924;25.562;2022-07-05T04:13:26;99558.41;;;19.34;57.21
54900;BME280;40801;41.924;25.562;2022-07-05T04:15:51;99569.53;;;19.41;57.52
54900;BME280;40801;41.924;25.562;2022-07-05T04:18:18;99571.50;;;19.60;57.00
54900;BME280;40801;41.924;25.562;2022-07-05T04:20:44;99575.09;;;19.64;57.22
54900;BME280;40801;41.924;25.562;2022-07-05T04:23:09;99562.06;;;19.77;57.08
54900;BME280;40801;41.924;25.562;2022-07-05T04:25:35;99567.78;;;19.91;56.97
54900;BME280;40801;41.924;25.562;2022-07-05T04:28:00;99567.53;;;19.96;56.91
54900;BME280;40801;41.924;25.562;2022-07-05T04:30:26;99562.78;;;20.16;56.62
54900;BME280;40801;41.924;25.562;2022-07-05T04:32:51;99565.78;;;20.30;56.69
54900;BME280;40801;41.924;25.562;2022-07-05T04:35:17;99553.25;;;20.52;55.92
54900;BME280;40801;41.924;25.562;2022-07-05T04:37:43;99557.38;;;20.65;55.94
54900;BME280;40801;41.924;25.562;2022-07-05T04:40:10;99554.97;;;20.87;55.63
54900;BME280;40801;41.924;25.562;2022-07-05T04:42:36;99548.53;;;21.02;55.36
54900;BME280;40801;41.924;25.562;2022-07-05T04:45:03;99552.25;;;21.17;55.19
54900;BME280;40801;41.924;25.562;2022-07-05T04:47:28;99552.44;;;21.27;54.98
54900;BME280;40801;41.924;25.562;2022-07-05T04:49:54;99553.88;;;21.48;54.65
54900;BME280;40801;41.924;25.562;2022-07-05T04:52:22;99556.09;;;21.69;53.96
54900;BME280;40801;41.924;25.562;2022-07-05T04:54:47;99560.59;;;21.87;53.61
54900;BME280;40801;41.924;25.562;2022-07-05T04:57:13;99559.19;;;22.01;53.51
54900;BME280;40801;41.924;25.562;2022-07-05T04:59:38;99560.94;;;22.19;53.15
54900;BME280;40801;41.924;25.562;2022-07-05T05:02:04;99571.19;;;22.26;52.95
54900;BME280;40801;41.924;25.562;2022-07-05T05:04:29;99570.94;;;22.38;53.16
54900;BME280;40801;41.924;25.562;2022-07-05T05:06:55;99566.41;;;22.60;52.67
54900;BME280;40801;41.924;25.562;2022-07-05T05:09:20;99561.00;;;22.74;52.29
54900;BME280;40801;41.924;25.562;2022-07-05T05:11:46;99562.75;;;22.90;52.14
54900;BME280;40801;41.924;25.562;2022-07-05T05:14:12;99558.88;;;23.01;51.39
54900;BME280;40801;41.924;25.562;2022-07-05T05:16:37;99557.78;;;23.16;51.49
54900;BME280;40801;41.924;25.562;2022-07-05T05:19:02;99567.69;;;23.32;51.22
54900;BME280;40801;41.924;25.562;2022-07-05T05:21:28;99564.22;;;23.49;50.99
54900;BME280;40801;41.924;25.562;2022-07-05T05:23:53;99571.38;;;23.57;50.68
54900;BME280;40801;41.924;25.562;2022-07-05T05:26:19;99570.25;;;23.72;50.37
54900;BME280;40801;41.924;25.562;2022-07-05T05:28:44;99566.75;;;23.90;50.26
54900;BME280;40801;41.924;25.562;2022-07-05T05:31:10;99573.50;;;24.06;49.44
54900;BME280;40801;41.924;25.562;2022-07-05T05:33:35;99576.25;;;24.14;49.14
54900;BME280;40801;41.924;25.562;2022-07-05T05:36:01;99573.50;;;24.14;49.26
54900;BME280;40801;41.924;25.562;2022-07-05T05:38:27;99572.38;;;24.36;49.11
54900;BME280;40801;41.924;25.562;2022-07-05T05:40:52;99568.84;;;24.50;48.95
54900;BME280;40801;41.924;25.562;2022-07-05T05:43:18;99569.25;;;24.62;48.67
54900;BME280;40801;41.924;25.562;2022-07-05T05:45:43;99573.19;;;24.61;48.56
54900;BME280;40801;41.924;25.562;2022-07-05T05:48:09;99577.50;;;24.91;47.75
54900;BME280;40801;41.924;25.562;2022-07-05T05:50:36;99574.72;;;25.09;47.35
54900;BME280;40801;41.924;25.562;2022-07-05T05:53:02;99583.00;;;25.19;47.10
54900;BME280;40801;41.924;25.562;2022-07-05T05:55:29;99590.84;;;25.28;46.71
54900;BME280;40801;41.924;25.562;2022-07-05T05:57:56;99584.50;;;25.45;46.34
54900;BME280;40801;41.924;25.562;2022-07-05T06:00:23;99587.97;;;25.60;46.09
54900;BME280;40801;41.924;25.562;2022-07-05T06:02:50;99582.47;;;25.56;45.72
54900;BME280;40801;41.924;25.562;2022-07-05T06:05:16;99581.25;;;25.75;45.23
54900;BME280;40801;41.924;25.562;2022-07-05T06:07:54;99580.78;;;25.87;45.13
54900;BME280;40801;41.924;25.562;2022-07-05T06:10:22;99580.69;;;26.05;44.75
54900;BME280;40801;41.924;25.562;2022-07-05T06:12:48;99582.16;;;26.20;44.04
54900;BME280;40801;41.924;25.562;2022-07-05T06:15:14;99583.28;;;26.34;43.66
54900;BME280;40801;41.924;25.562;2022-07-05T06:17:40;99586.44;;;26.32;43.70
54900;BME280;40801;41.924;25.562;2022-07-05T06:20:10;99574.84;;;26.51;43.09
54900;BME280;40801;41.924;25.562;2022-07-05T06:22:36;99580.00;;;26.49;42.45
54900;BME280;40801;41.924;25.562;2022-07-05T06:25:03;99583.59;;;26.46;42.70
54900;BME280;40801;41.924;25.562;2022-07-05T06:27:28;99586.66;;;26.55;42.93
54900;BME280;40801;41.924;25.562;2022-07-05T06:29:53;99588.09;;;26.74;42.51
54900;BME280;40801;41.924;25.562;2022-07-05T06:32:19;99577.72;;;26.85;42.97
54900;BME280;40801;41.924;25.562;2022-07-05T06:34:44;99576.16;;;26.81;43.03
54900;BME280;40801;41.924;25.562;2022-07-05T06:37:10;99577.44;;;27.14;42.40
54900;BME280;40801;41.924;25.562;2022-07-05T06:39:35;99572.06;;;27.37;42.12
54900;BME280;40801;41.924;25.562;2022-07-05T06:42:02;99573.53;;;27.49;41.48
54900;BME280;40801;41.924;25.562;2022-07-05T06:44:27;99583.25;;;27.64;41.82
54900;BME280;40801;41.924;25.562;2022-07-05T06:46:53;99582.09;;;27.58;40.07
54900;BME280;40801;41.924;25.562;2022-07-05T06:49:18;99572.28;;;27.54;39.40
54900;BME280;40801;41.924;25.562;2022-07-05T06:51:44;99571.31;;;27.67;39.07
54900;BME280;40801;41.924;25.562;2022-07-05T06:54:09;99569.59;;;27.81;38.54
54900;BME280;40801;41.924;25.562;2022-07-05T06:56:34;99573.66;;;27.99;38.58
54900;BME280;40801;41.924;25.562;2022-07-05T06:59:00;99570.22;;;28.19;38.46
54900;BME280;40801;41.924;25.562;2022-07-05T07:01:25;99563.41;;;28.23;38.21
54900;BME280;40801;41.924;25.562;2022-07-05T07:03:51;99558.47;;;28.38;38.21
54900;BME280;40801;41.924;25.562;2022-07-05T07:06:16;99566.41;;;28.59;38.04
54900;BME280;40801;41.924;25.562;2022-07-05T07:08:42;99560.41;;;28.41;37.84
54900;BME280;40801;41.924;25.562;2022-07-05T07:11:26;99552.84;;;28.42;37.82
54900;BME280;40801;41.924;25.562;2022-07-05T07:13:52;99561.22;;;28.61;37.70
54900;BME280;40801;41.924;25.562;2022-07-05T07:16:17;99557.31;;;28.82;37.38
54900;BME280;40801;41.924;25.562;2022-07-05T07:18:43;99551.81;;;28.79;37.25
54900;BME280;40801;41.924;25.562;2022-07-05T07:21:08;99562.28;;;28.94;37.32
54900;BME280;40801;41.924;25.562;2022-07-05T07:23:33;99566.00;;;29.08;36.52
54900;BME280;40801;41.924;25.562;2022-07-05T07:26:00;99564.34;;;29.10;36.28
54900;BME280;40801;41.924;25.562;2022-07-05T07:28:26;99561.03;;;29.39;36.01
54900;BME280;40801;41.924;25.562;2022-07-05T07:30:51;99565.53;;;29.33;35.76
54900;BME280;40801;41.924;25.562;2022-07-05T07:33:16;99568.00;;;29.27;35.79
54900;BME280;40801;41.924;25.562;2022-07-05T07:35:42;99554.09;;;29.50;35.85
54900;BME280;40801;41.924;25.562;2022-07-05T07:38:07;99565.66;;;29.65;35.36
54900;BME280;40801;41.924;25.562;2022-07-05T07:40:33;99559.81;;;29.79;35.64
54900;BME280;40801;41.924;25.562;2022-07-05T07:42:58;99559.91;;;29.92;34.55
54900;BME280;40801;41.924;25.562;2022-07-05T07:45:23;99557.13;;;29.92;34.74
54900;BME280;40801;41.924;25.562;2022-07-05T07:47:51;99548.44;;;29.90;34.21
54900;BME280;40801;41.924;25.562;2022-07-05T07:50:16;99553.81;;;30.17;34.56
54900;BME280;40801;41.924;25.562;2022-07-05T07:52:42;99547.03;;;30.34;33.48
54900;BME280;40801;41.924;25.562;2022-07-05T07:55:07;99545.22;;;30.28;33.49
54900;BME280;40801;41.924;25.562;2022-07-05T07:57:33;99544.53;;;30.40;32.61
54900;BME280;40801;41.924;25.562;2022-07-05T07:59:58;99539.66;;;30.44;32.47
54900;BME280;40801;41.924;25.562;2022-07-05T08:02:24;99536.69;;;30.51;33.18
54900;BME280;40801;41.924;25.562;2022-07-05T08:04:50;99538.00;;;30.63;31.74
54900;BME280;40801;41.924;25.562;2022-07-05T08:07:16;99531.72;;;30.75;29.78
54900;BME280;40801;41.924;25.562;2022-07-05T08:09:42;99530.31;;;30.83;28.73
54900;BME280;40801;41.924;25.562;2022-07-05T08:12:08;99533.16;;;30.96;28.76
54900;BME280;40801;41.924;25.562;2022-07-05T08:14:33;99533.66;;;31.07;28.63
54900;BME280;40801;41.924;25.562;2022-07-05T08:16:59;99532.22;;;31.15;28.88
54900;BME280;40801;41.924;25.562;2022-07-05T08:19:24;99525.44;;;31.16;29.64
54900;BME280;40801;41.924;25.562;2022-07-05T08:22:08;99531.44;;;31.43;29.47
54900;BME280;40801;41.924;25.562;2022-07-05T08:24:35;99532.47;;;31.62;29.47
54900;BME280;40801;41.924;25.562;2022-07-05T08:27:01;99532.25;;;31.69;28.19
54900;BME280;40801;41.924;25.562;2022-07-05T08:29:26;99528.53;;;31.89;27.69
54900;BME280;40801;41.924;25.562;2022-07-05T08:31:52;99527.50;;;32.08;27.91
54900;BME280;40801;41.924;25.562;2022-07-05T08:34:18;99528.28;;;32.09;27.94
54900;BME280;40801;41.924;25.562;2022-07-05T08:36:44;99533.66;;;32.16;27.89
54900;BME280;40801;41.924;25.562;2022-07-05T08:39:10;99527.03;;;32.22;27.83
54900;BME280;40801;41.924;25.562;2022-07-05T08:41:38;99533.53;;;32.45;27.63
54900;BME280;40801;41.924;25.562;2022-07-05T08:44:05;99529.56;;;32.68;27.16
54900;BME280;40801;41.924;25.562;2022-07-05T08:46:31;99534.69;;;33.04;27.03
54900;BME280;40801;41.924;25.562;2022-07-05T08:49:02;99528.94;;;33.42;26.52
54900;BME280;40801;41.924;25.562;2022-07-05T08:51:37;99539.03;;;33.70;25.91
54900;BME280;40801;41.924;25.562;2022-07-05T08:54:04;99533.13;;;33.99;25.61
54900;BME280;40801;41.924;25.562;2022-07-05T08:56:30;99534.16;;;34.33;24.89
54900;BME280;40801;41.924;25.562;2022-07-05T08:58:56;99530.81;;;34.65;24.34
54900;BME280;40801;41.924;25.562;2022-07-05T09:01:22;99530.25;;;35.07;23.65
54900;BME280;40801;41.924;25.562;2022-07-05T09:03:49;99527.41;;;35.16;23.62
54900;BME280;40801;41.924;25.562;2022-07-05T09:06:20;99529.09;;;35.50;23.03
54900;BME280;40801;41.924;25.562;2022-07-05T09:08:48;99525.28;;;35.72;22.11
54900;BME280;40801;41.924;25.562;2022-07-05T09:11:15;99519.84;;;35.68;22.07
54900;BME280;40801;41.924;25.562;2022-07-05T09:13:49;99509.38;;;35.87;21.66
54900;BME280;40801;41.924;25.562;2022-07-05T09:16:15;99519.59;;;35.99;22.38
54900;BME280;40801;41.924;25.562;2022-07-05T09:18:48;99514.16;;;36.52;21.97
54900;BME280;40801;41.924;25.562;2022-07-05T09:21:25;99522.13;;;36.69;22.00
54900;BME280;40801;41.924;25.562;2022-07-05T09:23:56;99513.50;;;36.96;21.29
54900;BME280;40801;41.924;25.562;2022-07-05T09:29:05;99513.69;;;37.31;21.17
54900;BME280;40801;41.924;25.562;2022-07-05T09:31:33;99506.88;;;37.38;21.04
54900;BME280;40801;41.924;25.562;2022-07-05T09:34:10;99508.31;;;37.48;20.44
54900;BME280;40801;41.924;25.562;2022-07-05T09:39:37;99501.06;;;38.06;19.77
54900;BME280;40801;41.924;25.562;2022-07-05T09:44:42;99491.34;;;38.07;20.01
54900;BME280;40801;41.924;25.562;2022-07-05T09:47:09;99492.19;;;38.28;19.46
54900;BME280;40801;41.924;25.562;2022-07-05T09:49:37;99493.03;;;38.34;19.79
54900;BME280;40801;41.924;25.562;2022-07-05T09:52:03;99488.88;;;38.70;19.22
54900;BME280;40801;41.924;25.562;2022-07-05T09:54:28;99485.34;;;38.55;19.13
54900;BME280;40801;41.924;25.562;2022-07-05T09:56:53;99478.22;;;38.80;19.43
54900;BME280;40801;41.924;25.562;2022-07-05T09:59:19;99476.53;;;38.67;19.31
54900;BME280;40801;41.924;25.562;2022-07-05T10:01:46;99463.44;;;39.11;18.63
54900;BME280;40801;41.924;25.562;2022-07-05T10:04:11;99464.56;;;39.50;18.38
54900;BME280;40801;41.924;25.562;2022-07-05T10:06:37;99465.44;;;39.62;18.16
54900;BME280;40801;41.924;25.562;2022-07-05T10:09:04;99461.47;;;39.22;19.46
54900;BME280;40801;41.924;25.562;2022-07-05T10:11:30;99465.19;;;39.66;18.75
54900;BME280;40801;41.924;25.562;2022-07-05T10:13:58;99453.75;;;39.49;18.59
54900;BME280;40801;41.924;25.562;2022-07-05T10:16:23;99463.50;;;39.48;18.77
54900;BME280;40801;41.924;25.562;2022-07-05T10:18:56;99453.28;;;39.50;18.46
54900;BME280;40801;41.924;25.562;2022-07-05T10:21:23;99450.09;;;39.74;18.39
54900;BME280;40801;41.924;25.562;2022-07-05T10:23:51;99439.59;;;39.75;18.82
54900;BME280;40801;41.924;25.562;2022-07-05T10:26:19;99435.50;;;39.44;18.17
54900;BME280;40801;41.924;25.562;2022-07-05T10:28:48;99436.88;;;39.54;18.00
54900;BME280;40801;41.924;25.562;2022-07-05T10:31:16;99439.63;;;39.86;17.96
54900;BME280;40801;41.924;25.562;2022-07-05T10:33:42;99435.88;;;39.57;18.02
54900;BME280;40801;41.924;25.562;2022-07-05T10:36:10;99440.41;;;39.86;17.67
54900;BME280;40801;41.924;25.562;2022-07-05T10:38:36;99445.09;;;38.74;19.08
54900;BME280;40801;41.924;25.562;2022-07-05T10:41:05;99437.31;;;39.47;18.69
54900;BME280;40801;41.924;25.562;2022-07-05T10:43:32;99432.50;;;39.90;18.47
54900;BME280;40801;41.924;25.562;2022-07-05T10:45:57;99428.97;;;40.01;18.27
54900;BME280;40801;41.924;25.562;2022-07-05T10:48:24;99431.13;;;39.80;17.88
54900;BME280;40801;41.924;25.562;2022-07-05T11:06:27;99418.25;;;41.32;16.64
54900;BME280;40801;41.924;25.562;2022-07-05T11:14:03;99411.31;;;41.50;15.95
54900;BME280;40801;41.924;25.562;2022-07-05T11:16:34;99411.56;;;41.07;15.30
54900;BME280;40801;41.924;25.562;2022-07-05T11:19:07;99411.34;;;41.38;15.27
54900;BME280;40801;41.924;25.562;2022-07-05T11:21:33;99408.66;;;40.68;15.90
54900;BME280;40801;41.924;25.562;2022-07-05T11:26:48;99406.66;;;41.02;16.43
54900;BME280;40801;41.924;25.562;2022-07-05T11:29:45;99403.09;;;41.24;15.50
54900;BME280;40801;41.924;25.562;2022-07-05T11:32:18;99392.78;;;41.09;15.67
54900;BME280;40801;41.924;25.562;2022-07-05T11:34:46;99389.47;;;41.39;15.65
54900;BME280;40801;41.924;25.562;2022-07-05T11:37:23;99388.69;;;41.38;15.19
54900;BME280;40801;41.924;25.562;2022-07-05T11:42:49;99387.84;;;41.60;15.66
54900;BME280;40801;41.924;25.562;2022-07-05T11:45:16;99383.00;;;41.66;15.92
54900;BME280;40801;41.924;25.562;2022-07-05T11:47:42;99373.53;;;42.16;15.92
54900;BME280;40801;41.924;25.562;2022-07-05T11:50:09;99378.41;;;42.21;15.73
54900;BME280;40801;41.924;25.562;2022-07-05T11:52:36;99374.66;;;41.85;15.79
54900;BME280;40801;41.924;25.562;2022-07-05T11:55:11;99382.09;;;41.99;15.04
54900;BME280;40801;41.924;25.562;2022-07-05T11:57:37;99379.56;;;42.43;15.16
54900;BME280;40801;41.924;25.562;2022-07-05T12:00:12;99371.38;;;42.33;15.29
54900;BME280;40801;41.924;25.562;2022-07-05T12:02:44;99366.03;;;42.24;14.97
54900;BME280;40801;41.924;25.562;2022-07-05T12:05:10;99357.50;;;42.30;14.94
54900;BME280;40801;41.924;25.562;2022-07-05T12:07:37;99351.38;;;40.90;16.21
54900;BME280;40801;41.924;25.562;2022-07-05T12:10:03;99359.03;;;41.56;15.79
54900;BME280;40801;41.924;25.562;2022-07-05T12:12:47;99351.31;;;41.68;15.98
54900;BME280;40801;41.924;25.562;2022-07-05T12:15:16;99353.09;;;41.76;15.26
54900;BME280;40801;41.924;25.562;2022-07-05T12:17:44;99347.13;;;41.86;15.80
54900;BME280;40801;41.924;25.562;2022-07-05T12:20:11;99347.31;;;41.99;15.51
54900;BME280;40801;41.924;25.562;2022-07-05T12:22:40;99344.78;;;42.42;15.12
54900;BME280;40801;41.924;25.562;2022-07-05T12:25:08;99351.81;;;42.30;15.13
54900;BME280;40801;41.924;25.562;2022-07-05T12:27:37;99346.53;;;42.56;14.26
54900;BME280;40801;41.924;25.562;2022-07-05T12:30:04;99336.06;;;42.34;14.36
54900;BME280;40801;41.924;25.562;2022-07-05T12:32:30;99337.28;;;41.98;15.27
54900;BME280;40801;41.924;25.562;2022-07-05T12:34:57;99338.31;;;42.00;15.46
54900;BME280;40801;41.924;25.562;2022-07-05T12:37:24;99330.59;;;41.90;15.22
54900;BME280;40801;41.924;25.562;2022-07-05T12:40:01;99330.94;;;41.75;15.27
54900;BME280;40801;41.924;25.562;2022-07-05T12:45:10;99326.75;;;42.40;14.66
54900;BME280;40801;41.924;25.562;2022-07-05T12:47:53;99326.91;;;42.58;14.96
54900;BME280;40801;41.924;25.562;2022-07-05T12:50:23;99322.88;;;42.43;15.01
54900;BME280;40801;41.924;25.562;2022-07-05T12:53:05;99322.94;;;42.31;15.84
54900;BME280;40801;41.924;25.562;2022-07-05T12:55:58;99321.19;;;41.54;15.85
54900;BME280;40801;41.924;25.562;2022-07-05T13:01:28;99310.97;;;42.03;15.60
54900;BME280;40801;41.924;25.562;2022-07-05T13:04:06;99323.13;;;41.92;15.25
54900;BME280;40801;41.924;25.562;2022-07-05T13:12:05;99309.69;;;41.29;16.03
54900;BME280;40801;41.924;25.562;2022-07-05T13:14:32;99300.38;;;41.51;16.25
54900;BME280;40801;41.924;25.562;2022-07-05T13:16:57;99306.75;;;41.63;16.15
54900;BME280;40801;41.924;25.562;2022-07-05T13:19:23;99307.03;;;41.70;16.21
54900;BME280;40801;41.924;25.562;2022-07-05T13:21:48;99300.63;;;41.47;16.24
54900;BME280;40801;41.924;25.562;2022-07-05T13:24:14;99294.66;;;41.62;16.23
54900;BME280;40801;41.924;25.562;2022-07-05T13:26:39;99288.81;;;41.43;16.24
54900;BME280;40801;41.924;25.562;2022-07-05T13:29:04;99285.91;;;41.60;16.39
54900;BME280;40801;41.924;25.562;2022-07-05T13:31:30;99277.97;;;41.47;17.01
54900;BME280;40801;41.924;25.562;2022-07-05T13:33:56;99282.31;;;41.54;16.78
54900;BME280;40801;41.924;25.562;2022-07-05T13:36:22;99270.97;;;41.60;16.29